Time;durP1;ratioP1;P1;durP2;ratioP2;P2;SDS_P1;SDS_P2;PMS_P1;PMS_P2;Temp;Humidity;BMP_temperature;BMP_pressure;BME280_temperature;BME280_humidity;BME280_pressure;Samples;Min_cycle;Max_cycle;Signal;HPM_P1;HPM_P2
2023/12/03 00:00:43;;;;;;;115.22;48.58;;;-4.00;99.90;;;;;;5074708;28;20497;-78
2023/12/03 00:03:11;;;;;;;62.42;26.17;;;-4.10;99.90;;;;;;5075200;28;20490;-78
2023/12/03 00:05:37;;;;;;;60.90;24.05;;;-4.00;99.90;;;;;;5074157;28;20017;-75
2023/12/03 00:08:03;;;;;;;109.13;44.83;;;-4.10;99.90;;;;;;5074921;28;20470;-78
2023/12/03 00:10:30;;;;;;;118.97;45.58;;;-4.10;99.90;;;;;;5073986;28;20489;-77
2023/12/03 00:12:56;;;;;;;87.75;36.42;;;-4.10;99.90;;;;;;5073735;28;20103;-75
2023/12/03 00:15:22;;;;;;;55.75;23.17;;;-4.00;99.90;;;;;;5073875;28;20112;-78
2023/12/03 00:17:49;;;;;;;90.65;40.15;;;-4.00;99.90;;;;;;5074753;28;20024;-78
2023/12/03 00:20:15;;;;;;;61.42;26.15;;;-4.00;99.90;;;;;;5073841;28;20378;-75
2023/12/03 00:22:41;;;;;;;65.25;26.42;;;-4.00;99.90;;;;;;5073394;28;20025;-78
2023/12/03 00:25:07;;;;;;;83.15;32.53;;;-4.00;99.90;;;;;;5073661;28;20021;-78
2023/12/03 00:27:32;;;;;;;112.43;46.97;;;-4.00;99.90;;;;;;5074579;28;20031;-75
2023/12/03 00:29:58;;;;;;;64.18;26.63;;;-4.00;99.90;;;;;;5073785;28;20437;-78
2023/12/03 00:32:24;;;;;;;115.55;42.88;;;-4.00;99.90;;;;;;5074499;28;20125;-78
2023/12/03 00:34:50;;;;;;;84.13;35.25;;;-3.90;99.90;;;;;;5073596;28;20111;-78
2023/12/03 00:37:15;;;;;;;69.60;31.13;;;-3.90;99.90;;;;;;5073257;28;20090;-78
2023/12/03 00:39:41;;;;;;;54.50;23.92;;;-3.90;99.90;;;;;;5074836;28;20021;-78
2023/12/03 00:42:07;;;;;;;52.42;23.95;;;-3.90;99.90;;;;;;5075179;28;20487;-75
2023/12/03 00:44:32;;;;;;;63.78;28.63;;;-3.90;99.90;;;;;;5074010;28;20048;-76
2023/12/03 00:46:58;;;;;;;66.32;28.02;;;-3.90;99.90;;;;;;5073070;28;20016;-75
2023/12/03 00:49:24;;;;;;;65.00;24.70;;;-3.90;99.90;;;;;;5074650;28;20028;-75
2023/12/03 00:51:49;;;;;;;62.17;25.00;;;-3.90;99.90;;;;;;5072931;28;20025;-78
2023/12/03 00:54:15;;;;;;;60.67;24.45;;;-3.90;99.90;;;;;;5074297;28;20028;-75
2023/12/03 00:56:41;;;;;;;52.95;22.90;;;-3.90;99.90;;;;;;5073015;28;20021;-78
2023/12/03 00:59:06;;;;;;;54.05;24.05;;;-3.80;99.90;;;;;;5074621;28;20462;-75
2023/12/03 01:01:32;;;;;;;58.60;24.55;;;-3.90;99.90;;;;;;5072657;28;20524;-78
2023/12/03 01:03:58;;;;;;;65.93;25.88;;;-3.90;99.90;;;;;;5074235;28;20024;-76
2023/12/03 01:06:23;;;;;;;140.20;51.55;;;-3.90;99.90;;;;;;5072630;28;20386;-75
2023/12/03 01:08:49;;;;;;;126.63;49.30;;;-3.90;99.90;;;;;;5072584;28;20032;-75
2023/12/03 01:11:15;;;;;;;152.18;59.50;;;-3.90;99.90;;;;;;5073654;28;20016;-78
2023/12/03 01:13:41;;;;;;;75.43;28.40;;;-3.90;99.90;;;;;;5074104;28;20032;-78
2023/12/03 01:16:15;;;;;;;52.83;22.00;;;-3.90;99.90;;;;;;5073843;28;20478;-78
2023/12/03 01:18:41;;;;;;;95.63;36.28;;;-3.80;99.90;;;;;;5074137;28;20527;-75
2023/12/03 01:21:07;;;;;;;72.90;31.52;;;-3.80;99.90;;;;;;5073661;28;20032;-75
2023/12/03 01:23:32;;;;;;;68.47;29.77;;;-3.80;99.90;;;;;;5072349;28;20559;-78
2023/12/03 01:25:58;;;;;;;65.80;28.08;;;-3.80;99.90;;;;;;5072399;28;20048;-78
2023/12/03 01:28:23;;;;;;;73.57;28.38;;;-3.80;99.90;;;;;;5073715;28;20039;-78
2023/12/03 01:30:49;;;;;;;64.45;26.60;;;-3.80;99.90;;;;;;5073741;28;20028;-78
2023/12/03 01:33:15;;;;;;;91.05;34.03;;;-3.80;99.90;;;;;;5073498;28;20114;-75
2023/12/03 01:35:41;;;;;;;86.88;32.75;;;-3.80;99.90;;;;;;5070835;28;20017;-75
2023/12/03 01:38:06;;;;;;;86.05;38.92;;;-3.80;99.90;;;;;;5060058;28;20021;-78
2023/12/03 01:40:32;;;;;;;106.80;45.90;;;-3.80;99.90;;;;;;5073069;28;20025;-75
2023/12/03 01:42:58;;;;;;;80.03;33.10;;;-3.80;99.90;;;;;;5071992;28;20056;-75
2023/12/03 01:45:23;;;;;;;84.82;32.65;;;-3.80;99.90;;;;;;5073143;28;20024;-78
2023/12/03 01:47:49;;;;;;;73.90;31.10;;;-3.80;99.90;;;;;;5072155;28;20048;-78
2023/12/03 01:50:15;;;;;;;113.03;43.88;;;-3.80;99.90;;;;;;5071950;28;20429;-79
2023/12/03 01:52:41;;;;;;;85.13;30.55;;;-3.90;99.90;;;;;;5073438;28;20021;-75
2023/12/03 01:55:10;;;;;;;77.00;30.95;;;-3.90;99.90;;;;;;5071441;28;20066;-75
2023/12/03 01:57:37;;;;;;;74.38;31.92;;;-3.90;99.90;;;;;;5071858;28;20016;-75
2023/12/03 02:00:04;;;;;;;95.60;37.85;;;-3.90;99.90;;;;;;5080822;28;20032;-78
2023/12/03 02:02:30;;;;;;;120.70;46.47;;;-3.90;99.90;;;;;;5071274;28;20035;-75
2023/12/03 02:04:56;;;;;;;82.47;33.55;;;-3.90;99.90;;;;;;5071348;28;20401;-78
2023/12/03 02:07:22;;;;;;;101.47;39.10;;;-3.90;99.90;;;;;;5071541;28;20012;-75
2023/12/03 02:09:48;;;;;;;128.70;51.78;;;-3.90;99.90;;;;;;5071265;28;20016;-75
2023/12/03 02:12:14;;;;;;;70.70;29.58;;;-3.90;99.90;;;;;;5071560;28;20025;-75
2023/12/03 02:14:40;;;;;;;108.53;44.25;;;-3.90;99.90;;;;;;5072601;28;20081;-78
2023/12/03 02:17:06;;;;;;;81.45;32.80;;;-3.90;99.90;;;;;;5071605;28;20020;-75
2023/12/03 02:19:31;;;;;;;74.53;32.80;;;-4.00;99.90;;;;;;5071611;28;20031;-75
2023/12/03 02:21:57;;;;;;;77.50;33.90;;;-4.00;99.90;;;;;;5071047;28;20016;-78
2023/12/03 02:24:23;;;;;;;73.10;31.10;;;-4.00;99.90;;;;;;5071164;28;20194;-78
2023/12/03 02:26:48;;;;;;;94.95;37.03;;;-4.00;99.90;;;;;;5072745;28;20082;-78
2023/12/03 02:29:14;;;;;;;116.72;45.30;;;-4.00;99.90;;;;;;5071115;28;20462;-75
2023/12/03 02:31:40;;;;;;;100.72;40.97;;;-4.00;99.90;;;;;;5071345;28;20021;-76
2023/12/03 02:34:08;;;;;;;98.05;40.67;;;-4.00;99.90;;;;;;5071202;28;20025;-78
2023/12/03 02:36:34;;;;;;;77.43;32.13;;;-4.00;99.90;;;;;;5072714;28;20021;-78
2023/12/03 02:39:00;;;;;;;74.25;27.70;;;-4.00;99.90;;;;;;5070360;28;20024;-75
2023/12/03 02:41:25;;;;;;;93.30;36.17;;;-4.00;99.90;;;;;;5070780;28;20029;-75
2023/12/03 02:43:51;;;;;;;73.90;30.67;;;-4.00;99.90;;;;;;5070983;28;20470;-79
2023/12/03 02:46:17;;;;;;;67.32;29.05;;;-3.90;99.90;;;;;;5071245;28;20052;-75
2023/12/03 02:48:42;;;;;;;67.47;27.70;;;-4.00;99.90;;;;;;5072395;28;20021;-76
2023/12/03 02:51:09;;;;;;;56.95;26.55;;;-4.00;99.90;;;;;;5070901;28;20021;-76
2023/12/03 02:53:38;;;;;;;95.38;39.97;;;-4.00;99.90;;;;;;5072765;28;20036;-78
2023/12/03 02:56:04;;;;;;;71.28;26.83;;;-4.00;99.90;;;;;;5072027;28;20051;-76
2023/12/03 02:58:30;;;;;;;71.45;32.50;;;-4.10;99.90;;;;;;5070840;28;20024;-78
2023/12/03 03:00:55;;;;;;;105.50;40.72;;;-4.00;99.90;;;;;;5072178;28;20035;-75
2023/12/03 03:03:21;;;;;;;73.75;31.27;;;-4.00;99.90;;;;;;5072330;28;20028;-75
2023/12/03 03:05:47;;;;;;;59.03;25.20;;;-4.00;99.90;;;;;;5072522;28;20062;-75
2023/12/03 03:08:12;;;;;;;68.80;30.45;;;-4.00;99.90;;;;;;5071217;28;20104;-78
2023/12/03 03:10:38;;;;;;;70.07;28.80;;;-4.00;99.90;;;;;;5071311;28;20046;-74
2023/12/03 03:13:04;;;;;;;59.15;27.20;;;-4.00;99.90;;;;;;5059617;28;20457;-75
2023/12/03 03:15:29;;;;;;;52.17;22.75;;;-4.00;99.90;;;;;;5071834;28;20048;-75
2023/12/03 03:17:55;;;;;;;86.07;33.97;;;-4.00;99.90;;;;;;5070907;28;20117;-78
2023/12/03 03:20:23;;;;;;;53.10;22.20;;;-4.00;99.90;;;;;;5072224;28;20024;-74
2023/12/03 03:22:49;;;;;;;55.17;25.60;;;-4.10;99.90;;;;;;5070800;28;20040;-78
2023/12/03 03:25:16;;;;;;;44.35;19.55;;;-4.10;99.90;;;;;;5071965;28;20028;-75
2023/12/03 03:27:42;;;;;;;38.25;18.75;;;-4.10;99.90;;;;;;5072173;28;20021;-74
2023/12/03 03:30:08;;;;;;;39.20;18.88;;;-4.10;99.90;;;;;;5072005;28;20351;-75
2023/12/03 03:32:34;;;;;;;59.60;22.85;;;-4.10;99.90;;;;;;5070577;28;20048;-78
2023/12/03 03:34:59;;;;;;;40.38;16.98;;;-4.10;99.90;;;;;;5060175;28;20469;-75
2023/12/03 03:37:25;;;;;;;37.55;16.60;;;-4.10;99.90;;;;;;5075610;28;20375;-75
2023/12/03 03:39:51;;;;;;;40.80;19.10;;;-4.10;99.90;;;;;;5074456;28;20074;-75
2023/12/03 03:42:16;;;;;;;76.20;28.63;;;-4.10;99.90;;;;;;5075539;28;20099;-78
2023/12/03 03:44:42;;;;;;;46.90;20.00;;;-4.10;99.90;;;;;;5075707;28;20024;-78
2023/12/03 03:47:09;;;;;;;42.22;16.90;;;-4.20;99.90;;;;;;5075508;28;20478;-75
2023/12/03 03:49:34;;;;;;;30.05;15.13;;;-4.20;99.90;;;;;;5075586;28;20016;-75
2023/12/03 03:52:01;;;;;;;30.35;14.05;;;-4.20;99.90;;;;;;5074326;28;20394;-75
2023/12/03 03:54:27;;;;;;;27.63;13.23;;;-4.20;99.90;;;;;;5074000;28;20482;-75
2023/12/03 03:56:53;;;;;;;26.98;12.93;;;-4.20;99.90;;;;;;5074295;28;20161;-75
2023/12/03 03:59:18;;;;;;;31.63;14.50;;;-4.20;99.90;;;;;;5074144;28;20019;-75
2023/12/03 04:01:44;;;;;;;25.05;13.25;;;-4.20;99.90;;;;;;5074213;28;20469;-75
2023/12/03 04:04:11;;;;;;;30.52;13.85;;;-4.30;99.90;;;;;;5075126;28;20492;-78
2023/12/03 04:06:42;;;;;;;27.05;13.85;;;-4.30;99.90;;;;;;5075379;28;20027;-78
2023/12/03 04:09:08;;;;;;;25.25;13.07;;;-4.30;99.90;;;;;;5073890;28;20035;-76
2023/12/03 04:11:46;;;;;;;25.00;13.20;;;-4.30;99.90;;;;;;5073854;28;20028;-78
2023/12/03 04:14:15;;;;;;;21.52;11.73;;;-4.30;99.90;;;;;;5064333;28;20099;-75
2023/12/03 04:16:41;;;;;;;21.15;12.25;;;-4.30;99.90;;;;;;5073742;28;20497;-78
2023/12/03 04:19:07;;;;;;;23.05;11.77;;;-4.30;99.90;;;;;;5075205;28;20104;-75
2023/12/03 04:21:33;;;;;;;30.00;14.63;;;-4.30;99.90;;;;;;5074695;28;20434;-75
2023/12/03 04:23:59;;;;;;;25.83;14.07;;;-4.30;99.90;;;;;;5073760;28;20516;-78
2023/12/03 04:26:25;;;;;;;26.05;13.40;;;-4.30;99.90;;;;;;5074563;28;20097;-75
2023/12/03 04:28:52;;;;;;;29.45;13.23;;;-4.30;99.90;;;;;;5075029;28;20500;-78
2023/12/03 04:31:22;;;;;;;22.92;13.05;;;-4.30;99.90;;;;;;5074456;28;20030;-75
2023/12/03 04:33:52;;;;;;;27.20;12.95;;;-4.40;99.90;;;;;;5073413;28;20040;-75
2023/12/03 04:36:22;;;;;;;30.92;14.20;;;-4.40;99.90;;;;;;5073482;28;20453;-75
2023/12/03 04:38:48;;;;;;;25.25;12.75;;;-4.50;99.90;;;;;;5074694;28;20474;-78
2023/12/03 04:41:14;;;;;;;27.23;14.55;;;-4.50;99.90;;;;;;5074377;28;20024;-78
2023/12/03 04:43:40;;;;;;;41.92;17.73;;;-4.50;99.90;;;;;;5074641;28;20398;-75
2023/12/03 04:46:07;;;;;;;24.77;12.73;;;-4.50;99.90;;;;;;5073685;28;20020;-79
2023/12/03 04:48:36;;;;;;;24.85;11.88;;;-4.50;99.90;;;;;;5074710;28;20032;-78
2023/12/03 04:51:03;;;;;;;22.05;12.27;;;-4.50;99.90;;;;;;5074362;28;20021;-75
2023/12/03 04:53:29;;;;;;;24.88;12.00;;;-4.50;99.90;;;;;;5073489;28;20086;-75
2023/12/03 04:55:55;;;;;;;19.63;12.02;;;-4.50;99.90;;;;;;5072927;28;20095;-78
2023/12/03 04:58:21;;;;;;;23.83;11.40;;;-4.50;99.90;;;;;;5073214;28;20032;-78
2023/12/03 05:00:46;;;;;;;23.63;12.45;;;-4.50;99.90;;;;;;5074273;28;20390;-75
2023/12/03 05:03:12;;;;;;;23.77;11.38;;;-4.50;99.90;;;;;;5073078;28;20101;-75
2023/12/03 05:05:38;;;;;;;21.80;11.38;;;-4.60;99.90;;;;;;5073016;28;20039;-77
2023/12/03 05:08:04;;;;;;;25.90;12.07;;;-4.60;99.90;;;;;;5073158;28;20024;-78
2023/12/03 05:10:29;;;;;;;20.30;11.07;;;-4.60;99.90;;;;;;5073256;28;20470;-75
2023/12/03 05:12:55;;;;;;;23.48;11.00;;;-4.60;99.90;;;;;;5074122;28;20025;-75
2023/12/03 05:15:21;;;;;;;18.92;9.95;;;-4.60;99.90;;;;;;5074044;28;20413;-77
2023/12/03 05:17:47;;;;;;;20.30;10.88;;;-4.60;99.90;;;;;;5074019;28;20166;-75
2023/12/03 05:20:13;;;;;;;37.50;18.60;;;-4.60;99.90;;;;;;5072157;28;20474;-74
2023/12/03 05:22:38;;;;;;;48.08;22.20;;;-4.70;99.90;;;;;;5072473;28;20394;-75
2023/12/03 05:25:05;;;;;;;23.65;14.63;;;-4.70;99.90;;;;;;5072434;28;20029;-78
2023/12/03 05:27:31;;;;;;;25.75;12.90;;;-4.70;99.90;;;;;;5073696;28;20047;-75
2023/12/03 05:29:56;;;;;;;38.70;19.38;;;-4.70;99.90;;;;;;5070977;28;20016;-78
2023/12/03 05:32:22;;;;;;;26.38;13.95;;;-4.70;99.90;;;;;;5073511;28;20463;-78
2023/12/03 05:34:48;;;;;;;30.30;16.05;;;-4.70;99.90;;;;;;5073494;28;20027;-75
2023/12/03 05:37:13;;;;;;;33.53;18.25;;;-4.70;99.90;;;;;;5072305;28;20027;-75
2023/12/03 05:39:40;;;;;;;27.50;17.33;;;-4.70;99.90;;;;;;5073476;28;20421;-78
2023/12/03 05:42:05;;;;;;;37.05;17.90;;;-4.70;99.90;;;;;;5073239;28;20494;-78
2023/12/03 05:44:31;;;;;;;39.90;16.85;;;-4.70;99.90;;;;;;5073019;28;20063;-78
2023/12/03 05:46:57;;;;;;;37.58;17.48;;;-4.70;99.90;;;;;;5073515;28;20029;-74
2023/12/03 05:49:22;;;;;;;30.00;16.27;;;-4.70;99.90;;;;;;5071987;28;20020;-78
2023/12/03 05:51:49;;;;;;;23.98;12.60;;;-4.70;99.90;;;;;;5073497;28;20020;-78
2023/12/03 05:54:15;;;;;;;39.53;19.67;;;-4.80;99.90;;;;;;5073085;28;20047;-75
2023/12/03 05:56:42;;;;;;;24.70;12.77;;;-4.70;99.90;;;;;;5071497;28;20447;-74
2023/12/03 05:59:07;;;;;;;38.15;16.20;;;-4.80;99.90;;;;;;5071743;28;20397;-75
2023/12/03 06:01:33;;;;;;;32.50;14.98;;;-4.70;99.90;;;;;;5073175;28;20032;-77
2023/12/03 06:04:06;;;;;;;25.40;14.82;;;-4.70;99.90;;;;;;5067166;28;20029;-78
2023/12/03 06:06:32;;;;;;;24.38;12.57;;;-4.70;99.90;;;;;;5071476;28;20025;-78
2023/12/03 06:08:57;;;;;;;28.27;14.18;;;-4.70;99.90;;;;;;5072816;28;20462;-78
2023/12/03 06:11:23;;;;;;;32.45;18.33;;;-4.70;99.90;;;;;;5071243;28;20023;-78
2023/12/03 06:13:48;;;;;;;26.88;14.13;;;-4.70;99.90;;;;;;5071181;28;20024;-75
2023/12/03 06:16:14;;;;;;;25.70;12.18;;;-4.70;99.90;;;;;;5072079;28;20095;-77
2023/12/03 06:18:40;;;;;;;22.63;11.45;;;-4.80;99.90;;;;;;5072862;28;20389;-78
2023/12/03 06:21:07;;;;;;;26.95;13.25;;;-4.80;99.90;;;;;;5071107;28;20490;-78
2023/12/03 06:23:33;;;;;;;28.27;12.95;;;-4.80;99.90;;;;;;5067857;28;20064;-78
2023/12/03 06:25:59;;;;;;;27.02;13.20;;;-4.80;99.90;;;;;;5071122;28;20490;-77
2023/12/03 06:28:28;;;;;;;25.55;12.65;;;-4.80;99.90;;;;;;5071251;28;20021;-74
2023/12/03 06:30:54;;;;;;;24.45;12.32;;;-4.80;99.90;;;;;;5071402;28;20044;-74
2023/12/03 06:33:20;;;;;;;26.27;12.73;;;-4.70;99.90;;;;;;5068484;28;20052;-74
2023/12/03 06:35:46;;;;;;;25.35;12.93;;;-4.70;99.90;;;;;;5071179;28;20482;-74
2023/12/03 06:38:14;;;;;;;24.75;12.40;;;-4.70;99.90;;;;;;5072332;28;20051;-75
2023/12/03 06:40:40;;;;;;;24.10;12.50;;;-4.70;99.90;;;;;;5072093;28;20063;-78
2023/12/03 06:43:05;;;;;;;21.65;13.25;;;-4.70;99.90;;;;;;5071382;28;20437;-77
2023/12/03 06:45:31;;;;;;;25.35;12.70;;;-4.70;99.90;;;;;;5070289;28;20814;-78
2023/12/03 06:47:57;;;;;;;25.52;13.00;;;-4.70;99.90;;;;;;5070727;28;20100;-78
2023/12/03 06:50:23;;;;;;;23.35;13.50;;;-4.70;99.90;;;;;;5071424;28;20066;-78
2023/12/03 06:52:49;;;;;;;24.38;12.93;;;-4.70;99.90;;;;;;5071614;28;20020;-79
2023/12/03 06:55:14;;;;;;;29.63;13.25;;;-4.60;99.90;;;;;;5070545;28;20025;-79
2023/12/03 06:57:40;;;;;;;21.63;11.95;;;-4.60;99.90;;;;;;5071325;28;20547;-78
2023/12/03 07:00:06;;;;;;;24.90;13.50;;;-4.60;99.90;;;;;;5070973;28;20399;-78
2023/12/03 07:02:32;;;;;;;26.08;12.48;;;-4.60;99.90;;;;;;5071925;28;20016;-78
2023/12/03 07:04:58;;;;;;;26.20;13.43;;;-4.50;99.90;;;;;;5071765;28;20033;-78
2023/12/03 07:07:24;;;;;;;27.30;12.98;;;-4.50;99.90;;;;;;5071745;28;20555;-79
2023/12/03 07:09:50;;;;;;;23.85;13.23;;;-4.50;99.90;;;;;;5074776;28;20478;-79
2023/12/03 07:12:16;;;;;;;26.77;13.68;;;-4.50;99.90;;;;;;5072380;28;20025;-78
2023/12/03 07:14:42;;;;;;;22.45;12.82;;;-4.50;99.90;;;;;;5075605;28;20025;-78
2023/12/03 07:17:08;;;;;;;23.63;12.77;;;-4.50;99.90;;;;;;5075028;28;20111;-79
2023/12/03 07:19:34;;;;;;;23.38;12.70;;;-4.40;99.90;;;;;;5074761;28;20462;-79
2023/12/03 07:21:59;;;;;;;29.38;13.50;;;-4.40;99.90;;;;;;5073780;28;20088;-79
2023/12/03 07:24:25;;;;;;;43.85;19.42;;;-4.40;99.90;;;;;;5075202;28;20048;-79
2023/12/03 07:26:51;;;;;;;26.85;12.85;;;-4.30;99.90;;;;;;5074119;28;20390;-79
2023/12/03 07:29:20;;;;;;;31.48;15.40;;;-4.20;99.90;;;;;;5072789;28;20097;-79
2023/12/03 07:31:46;;;;;;;35.92;15.68;;;-4.20;99.90;;;;;;5069901;28;20397;-76
2023/12/03 07:34:11;;;;;;;25.50;13.48;;;-4.20;99.90;;;;;;5071680;28;20020;-76
2023/12/03 07:36:37;;;;;;;31.52;15.35;;;-4.20;99.90;;;;;;5074006;28;20017;-76
2023/12/03 07:39:03;;;;;;;27.95;15.75;;;-4.20;99.90;;;;;;5074301;28;20019;-79
2023/12/03 07:41:30;;;;;;;33.90;18.88;;;-4.10;99.90;;;;;;5074489;28;20378;-79
2023/12/03 07:43:56;;;;;;;21.98;13.00;;;-4.10;99.90;;;;;;5074742;28;20051;-79
2023/12/03 07:46:21;;;;;;;22.05;12.05;;;-4.00;99.90;;;;;;5073695;28;20020;-79
2023/12/03 07:48:47;;;;;;;21.25;12.13;;;-4.10;99.90;;;;;;5068283;28;20036;-79
2023/12/03 07:51:13;;;;;;;31.38;14.25;;;-4.00;99.90;;;;;;5072656;28;20078;-79
2023/12/03 07:53:41;;;;;;;36.60;17.65;;;-4.00;99.90;;;;;;5074125;28;20033;-79
2023/12/03 07:56:08;;;;;;;34.28;16.65;;;-3.90;99.90;;;;;;5072224;28;20131;-79
2023/12/03 07:58:35;;;;;;;21.98;13.80;;;-3.90;99.90;;;;;;5072819;28;20094;-79
2023/12/03 08:01:01;;;;;;;27.58;14.05;;;-3.90;99.90;;;;;;5078093;28;20035;-79
2023/12/03 08:03:27;;;;;;;45.70;23.13;;;-3.90;99.90;;;;;;5073898;28;20025;-79
2023/12/03 08:05:53;;;;;;;32.88;18.80;;;-3.80;99.90;;;;;;5070108;28;20137;-79
2023/12/03 08:08:18;;;;;;;96.70;56.08;;;-3.80;99.90;;;;;;5073415;28;20413;-79
2023/12/03 08:10:44;;;;;;;38.25;19.50;;;-3.70;99.90;;;;;;5074664;28;20519;-79
2023/12/03 08:13:10;;;;;;;27.77;14.80;;;-3.70;99.90;;;;;;5070230;28;20042;-79
2023/12/03 08:15:36;;;;;;;39.63;16.27;;;-3.60;99.90;;;;;;5072512;28;20071;-79
2023/12/03 08:18:03;;;;;;;23.73;13.32;;;-3.60;99.90;;;;;;5073562;28;20462;-79
2023/12/03 08:20:28;;;;;;;94.97;38.30;;;-3.50;99.90;;;;;;5072425;28;20044;-79
2023/12/03 08:22:54;;;;;;;58.60;23.77;;;-3.50;99.90;;;;;;5074680;28;20044;-79
2023/12/03 08:25:20;;;;;;;144.18;53.45;;;-3.40;99.90;;;;;;5072350;28;20028;-78
2023/12/03 08:27:46;;;;;;;135.35;50.80;;;-3.40;99.90;;;;;;5072147;28;20016;-79
2023/12/03 08:30:12;;;;;;;136.80;47.88;;;-3.40;99.90;;;;;;5065659;28;20056;-80
2023/12/03 08:32:37;;;;;;;108.75;42.58;;;-3.30;99.90;;;;;;5074132;28;20083;-79
2023/12/03 08:35:03;;;;;;;111.63;38.80;;;-3.30;99.90;;;;;;5072126;28;20470;-79
2023/12/03 08:37:29;;;;;;;158.70;53.72;;;-3.30;99.90;;;;;;5072441;28;20045;-79
2023/12/03 08:39:55;;;;;;;120.97;40.60;;;-3.20;99.90;;;;;;5072280;28;20406;-79
2023/12/03 08:42:20;;;;;;;212.98;70.28;;;-3.20;99.90;;;;;;5073397;28;20471;-79
2023/12/03 08:44:46;;;;;;;254.88;82.00;;;-3.10;99.90;;;;;;5073329;28;20120;-79
2023/12/03 08:47:15;;;;;;;124.55;42.92;;;-3.20;99.90;;;;;;5073714;28;20074;-78
2023/12/03 08:49:41;;;;;;;144.18;48.72;;;-3.10;99.90;;;;;;5070604;28;20052;-78
2023/12/03 08:52:08;;;;;;;77.05;27.30;;;-3.00;99.90;;;;;;5072595;28;20032;-79
2023/12/03 08:54:34;;;;;;;183.77;60.20;;;-2.90;99.90;;;;;;5072703;28;20024;-79
2023/12/03 08:57:00;;;;;;;245.52;68.50;;;-2.90;99.90;;;;;;5071545;28;20031;-79
2023/12/03 08:59:25;;;;;;;393.25;112.57;;;-2.90;99.90;;;;;;5072633;28;20028;-79
2023/12/03 09:01:51;;;;;;;165.82;50.05;;;-2.90;99.90;;;;;;5066072;28;20054;-79
2023/12/03 09:04:17;;;;;;;264.45;70.25;;;-2.80;99.90;;;;;;5073281;28;20039;-79
2023/12/03 09:06:44;;;;;;;245.25;66.88;;;-2.70;99.90;;;;;;5071999;28;20036;-78
2023/12/03 09:09:10;;;;;;;296.13;85.72;;;-2.80;99.90;;;;;;5070363;28;20028;-78
2023/12/03 09:11:36;;;;;;;214.63;64.57;;;-2.70;99.90;;;;;;5073280;28;20028;-79
2023/12/03 09:14:03;;;;;;;275.90;77.25;;;-2.70;99.90;;;;;;5069696;28;20562;-79
2023/12/03 09:16:31;;;;;;;197.32;62.17;;;-2.70;99.90;;;;;;5070606;28;20031;-78
2023/12/03 09:18:57;;;;;;;168.35;51.65;;;-2.60;99.90;;;;;;5072718;28;20035;-79
2023/12/03 09:21:23;;;;;;;104.85;32.00;;;-2.70;99.90;;;;;;5073203;28;20095;-79
2023/12/03 09:23:49;;;;;;;64.18;24.17;;;-2.60;99.90;;;;;;5073140;28;20078;-78
2023/12/03 09:26:16;;;;;;;145.00;49.05;;;-2.60;99.90;;;;;;5072301;28;20025;-78
2023/12/03 09:28:41;;;;;;;156.68;50.05;;;-2.60;99.90;;;;;;5070644;28;20012;-78
2023/12/03 09:31:07;;;;;;;158.30;53.53;;;-2.60;99.90;;;;;;5071758;28;20071;-78
2023/12/03 09:33:33;;;;;;;99.40;36.13;;;-2.60;99.90;;;;;;5071583;28;20052;-78
2023/12/03 09:35:59;;;;;;;117.60;43.35;;;-2.60;99.90;;;;;;5071401;28;20063;-79
2023/12/03 09:38:25;;;;;;;110.40;40.58;;;-2.60;99.90;;;;;;5070307;28;20041;-78
2023/12/03 09:40:56;;;;;;;90.88;33.47;;;-2.60;99.90;;;;;;5072523;28;20143;-78
2023/12/03 09:43:25;;;;;;;106.68;42.20;;;-2.60;99.90;;;;;;5071284;28;20032;-78
2023/12/03 09:45:55;;;;;;;66.30;28.33;;;-2.50;99.90;;;;;;5071277;28;20012;-79
2023/12/03 09:48:22;;;;;;;101.35;38.58;;;-2.60;99.90;;;;;;5071247;28;20169;-78
2023/12/03 09:50:50;;;;;;;92.70;33.97;;;-2.50;99.90;;;;;;5071821;28;20077;-79
2023/12/03 09:53:19;;;;;;;147.07;44.30;;;-2.40;99.90;;;;;;5071436;28;20043;-78
2023/12/03 09:55:45;;;;;;;197.77;59.10;;;-2.40;99.90;;;;;;5069827;28;20024;-79
2023/12/03 09:58:15;;;;;;;189.32;57.05;;;-2.30;99.90;;;;;;5071582;28;20033;-78
2023/12/03 10:00:41;;;;;;;127.85;43.83;;;-2.30;99.90;;;;;;5071413;28;20560;-79
2023/12/03 10:03:08;;;;;;;132.65;38.58;;;-2.30;99.90;;;;;;5071132;28;20119;-78
2023/12/03 10:05:34;;;;;;;72.38;26.98;;;-2.40;99.90;;;;;;5070373;28;20073;-78
2023/12/03 10:08:00;;;;;;;104.00;41.60;;;-2.30;99.90;;;;;;5070635;28;20107;-78
2023/12/03 10:10:31;;;;;;;73.45;28.73;;;-2.30;99.90;;;;;;5071865;28;20024;-79
2023/12/03 10:12:58;;;;;;;54.63;21.08;;;-2.30;99.90;;;;;;5068071;28;20012;-78
2023/12/03 10:15:25;;;;;;;47.80;21.38;;;-2.20;99.90;;;;;;5069897;28;20115;-78
2023/12/03 10:17:51;;;;;;;43.83;18.98;;;-2.20;99.90;;;;;;5073690;28;20028;-79
2023/12/03 10:20:20;;;;;;;35.08;15.77;;;-2.10;99.90;;;;;;5069754;28;20023;-79
2023/12/03 10:22:46;;;;;;;49.90;20.60;;;-2.20;99.90;;;;;;5073740;28;20471;-79
2023/12/03 10:25:28;;;;;;;24.27;13.43;;;-2.20;99.90;;;;;;5073134;28;20440;-78
2023/12/03 10:27:56;;;;;;;23.93;12.10;;;-2.10;99.90;;;;;;5068981;28;20020;-79
2023/12/03 10:30:22;;;;;;;19.20;9.75;;;-2.20;99.90;;;;;;5070420;28;20027;-79
2023/12/03 10:32:47;;;;;;;14.57;8.35;;;-2.20;99.90;;;;;;5073217;28;20091;-80
2023/12/03 10:35:13;;;;;;;15.32;9.45;;;-2.10;99.90;;;;;;5071855;28;20017;-80
2023/12/03 10:37:42;;;;;;;15.30;10.43;;;-2.00;99.90;;;;;;5071515;28;20417;-79
2023/12/03 10:40:08;;;;;;;16.70;10.68;;;-1.90;99.90;;;;;;5070734;28;20020;-80
2023/12/03 10:42:38;;;;;;;14.90;8.35;;;-1.90;99.90;;;;;;5072057;28;20031;-80
2023/12/03 10:45:09;;;;;;;17.88;8.27;;;-2.00;99.90;;;;;;5071007;28;20463;-80
2023/12/03 10:47:36;;;;;;;18.75;10.00;;;-2.00;99.90;;;;;;5068857;28;20024;-80
2023/12/03 10:50:05;;;;;;;17.98;7.93;;;-2.10;99.90;;;;;;5069556;28;20025;-79
2023/12/03 10:52:32;;;;;;;11.05;6.88;;;-2.00;99.90;;;;;;5070083;28;20016;-80
2023/12/03 10:54:58;;;;;;;13.27;7.47;;;-2.00;99.90;;;;;;5072085;28;20028;-79
2023/12/03 10:57:31;;;;;;;11.90;7.18;;;-2.00;99.90;;;;;;5068362;28;20025;-80
2023/12/03 11:00:09;;;;;;;17.65;8.02;;;-1.90;99.90;;;;;;5078855;28;20017;-74
2023/12/03 11:02:39;;;;;;;13.82;8.13;;;-2.00;99.90;;;;;;5068424;28;20124;-79
2023/12/03 11:05:08;;;;;;;14.40;8.52;;;-2.00;99.90;;;;;;5068197;28;20758;-79
2023/12/03 11:07:34;;;;;;;16.45;8.93;;;-1.90;99.90;;;;;;5070083;28;20105;-80
2023/12/03 11:10:00;;;;;;;16.05;9.23;;;-1.90;99.90;;;;;;5069105;28;20441;-80
2023/12/03 11:12:26;;;;;;;19.10;9.63;;;-1.90;99.90;;;;;;5059989;28;20043;-80
2023/12/03 11:14:52;;;;;;;17.25;9.52;;;-2.00;99.90;;;;;;5071040;28;20016;-80
2023/12/03 11:17:30;;;;;;;19.23;11.93;;;-1.90;99.90;;;;;;5070400;28;20175;-80
2023/12/03 11:20:01;;;;;;;17.70;9.90;;;-1.90;99.90;;;;;;5071561;28;20024;-80
2023/12/03 11:22:54;;;;;;;20.67;10.82;;;-2.00;99.90;;;;;;5070810;28;20024;-80
2023/12/03 11:25:27;;;;;;;23.35;11.70;;;-2.00;99.90;;;;;;5065917;28;20052;-80
2023/12/03 11:27:53;;;;;;;24.80;11.07;;;-2.00;99.90;;;;;;5068154;28;20025;-80
2023/12/03 11:30:54;;;;;;;26.38;12.23;;;-2.00;99.90;;;;;;5067616;28;20078;-79
2023/12/03 11:33:21;;;;;;;19.63;9.73;;;-2.00;99.90;;;;;;5023780;28;20057;-80
2023/12/03 11:35:49;;;;;;;31.38;15.90;;;-2.10;99.90;;;;;;5060282;28;20079;-80
2023/12/03 11:38:21;;;;;;;128.65;43.83;;;-2.20;99.90;;;;;;5069719;28;20029;-79
2023/12/03 11:40:48;;;;;;;169.93;53.53;;;-2.20;99.90;;;;;;5069124;28;20162;-80
2023/12/03 11:43:28;;;;;;;190.98;59.88;;;-2.10;99.90;;;;;;5070750;28;20028;-80
2023/12/03 11:45:54;;;;;;;167.73;55.08;;;-2.10;99.90;;;;;;5067194;28;20021;-80
2023/12/03 11:48:22;;;;;;;174.50;59.42;;;-2.10;99.90;;;;;;5070882;28;20025;-80
2023/12/03 11:50:49;;;;;;;183.20;57.03;;;-2.10;99.90;;;;;;5070683;28;20076;-80
2023/12/03 11:53:16;;;;;;;207.52;65.28;;;-2.10;99.90;;;;;;5072346;28;20034;-80
2023/12/03 11:55:48;;;;;;;156.55;47.83;;;-2.10;99.90;;;;;;5070361;28;20060;-80
2023/12/03 11:58:14;;;;;;;243.20;72.68;;;-2.20;99.90;;;;;;5076024;28;20398;-80
2023/12/03 12:00:40;;;;;;;205.35;57.47;;;-2.20;99.90;;;;;;5074497;28;20494;-80
2023/12/03 12:03:07;;;;;;;184.85;56.47;;;-2.20;99.90;;;;;;5073222;28;20450;-80
2023/12/03 12:05:44;;;;;;;211.48;58.47;;;-2.20;99.90;;;;;;5073280;28;20071;-80
2023/12/03 12:08:09;;;;;;;108.60;38.78;;;-2.20;99.90;;;;;;5074472;28;20021;-80
2023/12/03 12:10:35;;;;;;;278.83;93.50;;;-2.10;99.90;;;;;;5073554;28;20081;-80
2023/12/03 12:13:03;;;;;;;227.27;68.13;;;-2.20;99.90;;;;;;5074172;28;20028;-80
2023/12/03 12:15:28;;;;;;;429.38;135.65;;;-2.20;99.90;;;;;;5072376;28;20033;-80
2023/12/03 12:17:54;;;;;;;364.95;113.55;;;-2.20;99.90;;;;;;5073748;28;20146;-80
2023/12/03 12:20:26;;;;;;;279.80;89.55;;;-2.10;99.90;;;;;;5073324;28;20394;-80
2023/12/03 12:22:52;;;;;;;280.60;77.88;;;-2.20;99.90;;;;;;5072407;28;20876;-80